X  Fermer Données météorologiques d'aviation de Metar     LIPX Verona-Villafranca Valerio Catullo Airport
Température
25°C Température
11°C Point de rosée
42% Humidité



Vitesse
10 KM/H
6 MPH
3 M/S
5 KTS



250°
OSO
Conditions actuelles

Claire Claire
Pression 1024.04 (hPa) - 30.24 (inHg)
Visibilité 6 (mile) - 9.7 (km)
Aéroport
Code de l'aéroport LIPX

Emplacement: Verona-Villafranca Valerio Catullo Airport
Distance: 50 (km)

Metar:
LIPX 131720Z 25005KT 190V280 CAVOK 25/11 Q1024

Temps: 13-04-2024 17:20 CEST